Time;durP1;ratioP1;P1;durP2;ratioP2;P2;SDS_P1;SDS_P2;PMS_P1;PMS_P2;Temp;Humidity;BMP_temperature;BMP_pressure;BME280_temperature;BME280_humidity;BME280_pressure;Samples;Min_cycle;Max_cycle;Signal;HPM_P1;HPM_P2
2021/12/04 00:02:20;;;;;;;3.08;2.15;;;;;;;4.48;88.07;98128.81;5052868;28;20186;-71
2021/12/04 00:04:49;;;;;;;1.85;1.60;;;;;;;4.49;88.57;98125.16;5053167;28;20193;-72
2021/12/04 00:07:17;;;;;;;1.73;1.60;;;;;;;4.50;88.57;98119.75;5052243;28;20228;-72
2021/12/04 00:09:45;;;;;;;2.10;1.80;;;;;;;4.66;88.30;98105.53;5052929;28;20216;-73
2021/12/04 00:12:12;;;;;;;3.17;2.10;;;;;;;4.63;86.96;98098.56;5052413;28;20291;-72
2021/12/04 00:14:41;;;;;;;2.50;1.70;;;;;;;4.62;87.07;98082.69;5053008;28;20185;-70
2021/12/04 00:17:08;;;;;;;2.70;1.73;;;;;;;4.63;86.69;98077.25;5052529;28;20190;-72
2021/12/04 00:19:34;;;;;;;1.70;1.60;;;;;;;4.54;87.73;98064.47;5052966;28;20636;-73
2021/12/04 00:22:01;;;;;;;1.40;1.30;;;;;;;4.46;88.58;98064.91;5053401;28;20701;-70
2021/12/04 00:24:30;;;;;;;1.73;1.50;;;;;;;4.40;89.34;98059.94;5053056;28;20186;-70
2021/12/04 00:26:56;;;;;;;1.70;1.42;;;;;;;4.35;88.26;98038.88;5052469;28;20237;-71
2021/12/04 00:29:23;;;;;;;2.30;1.95;;;;;;;4.51;87.71;98033.50;5052417;28;20212;-71
2021/12/04 00:31:53;;;;;;;2.03;1.38;;;;;;;4.33;89.28;98026.59;5052385;28;20284;-71
2021/12/04 00:34:22;;;;;;;3.28;2.20;;;;;;;4.40;89.99;98025.28;5052845;28;20217;-70
2021/12/04 00:37:04;;;;;;;1.77;1.58;;;;;;;4.59;88.89;98027.75;5052305;28;20182;-73
2021/12/04 00:50:28;;;;;;;1.50;1.40;;;;;;;4.43;95.05;98005.59;5056039;28;20276;-72
2021/12/04 00:52:56;;;;;;;1.90;1.75;;;;;;;4.31;96.11;98000.03;5056301;28;20260;-71
2021/12/04 00:55:24;;;;;;;2.63;1.60;;;;;;;4.37;96.41;97997.00;5056122;28;20716;-71
2021/12/04 00:57:51;;;;;;;1.80;1.70;;;;;;;4.53;94.25;97998.78;5055982;28;20204;-71
2021/12/04 01:00:18;;;;;;;1.63;1.50;;;;;;;4.44;94.04;97989.53;5055655;28;20293;-72
2021/12/04 01:02:44;;;;;;;2.20;1.85;;;;;;;4.41;94.98;97978.16;5055989;28;20281;-71
2021/12/04 01:05:11;;;;;;;3.67;2.00;;;;;;;4.37;97.13;97970.38;5056265;28;20218;-71
2021/12/04 01:07:38;;;;;;;2.00;1.60;;;;;;;4.49;96.37;97971.44;5056094;28;20213;-71
2021/12/04 01:10:07;;;;;;;2.00;1.73;;;;;;;4.45;95.55;97963.72;5056232;28;20193;-72
2021/12/04 01:12:36;;;;;;;1.98;1.70;;;;;;;4.43;94.37;97955.81;5055681;28;20592;-71
2021/12/04 01:15:03;;;;;;;2.22;1.90;;;;;;;4.52;95.11;97954.41;5055995;28;20186;-72
2021/12/04 01:17:29;;;;;;;3.35;2.50;;;;;;;4.39;95.70;97959.63;5056013;28;20209;-73
2021/12/04 01:19:56;;;;;;;2.30;2.03;;;;;;;4.33;97.84;97952.84;5055884;28;20288;-71
2021/12/04 01:22:22;;;;;;;3.42;1.75;;;;;;;4.26;98.16;97948.81;5055232;28;20198;-72
2021/12/04 01:24:49;;;;;;;1.90;1.80;;;;;;;4.37;98.48;97946.38;5055503;28;20198;-71
2021/12/04 01:27:16;;;;;;;2.45;2.25;;;;;;;4.53;97.99;97951.66;5055153;28;20233;-72
2021/12/04 01:29:44;;;;;;;2.70;2.00;;;;;;;4.59;98.27;97945.13;5055340;28;20214;-70
2021/12/04 01:32:11;;;;;;;5.38;2.53;;;;;;;4.43;98.07;97941.63;5055314;28;20770;-71
2021/12/04 01:34:38;;;;;;;2.10;1.90;;;;;;;4.52;97.82;97933.09;5055358;28;20202;-73
2021/12/04 01:37:05;;;;;;;2.28;2.08;;;;;;;4.57;97.70;97931.03;5055069;28;20197;-71
2021/12/04 01:39:32;;;;;;;2.03;1.92;;;;;;;4.75;95.39;97923.72;5055572;28;20198;-72
2021/12/04 01:41:59;;;;;;;2.10;1.58;;;;;;;4.78;94.57;97928.84;5054767;28;20200;-71
2021/12/04 01:44:25;;;;;;;2.38;2.00;;;;;;;4.79;95.66;97919.88;5055686;28;20674;-71
2021/12/04 01:46:55;;;;;;;2.15;1.95;;;;;;;4.61;96.34;97908.53;5055150;28;20194;-72
2021/12/04 01:49:22;;;;;;;2.40;2.15;;;;;;;4.50;97.66;97903.00;5055401;28;20213;-71
2021/12/04 01:51:49;;;;;;;3.55;2.38;;;;;;;4.64;98.45;97897.72;5054964;28;20281;-71
2021/12/04 01:54:16;;;;;;;7.55;5.00;;;;;;;4.63;98.63;97893.31;5054743;28;20208;-72
2021/12/04 01:56:42;;;;;;;2.83;2.50;;;;;;;4.68;98.78;97891.25;5055133;28;20292;-73
2021/12/04 01:59:09;;;;;;;2.75;1.63;;;;;;;4.44;99.69;97892.72;5054533;28;20186;-72
2021/12/04 02:01:36;;;;;;;2.50;2.30;;;;;;;4.45;100.00;97886.44;5055357;28;20194;-72
2021/12/04 02:04:05;;;;;;;5.07;4.00;;;;;;;4.40;100.00;97892.03;5054914;28;20194;-71
2021/12/04 02:06:32;;;;;;;4.65;3.47;;;;;;;4.62;100.00;97875.63;5055150;28;20528;-71
2021/12/04 02:08:58;;;;;;;2.65;2.17;;;;;;;4.81;99.99;97881.50;5054785;28;20222;-73
2021/12/04 02:11:25;;;;;;;3.42;2.80;;;;;;;4.65;99.95;97883.41;5055140;28;20634;-72
2021/12/04 02:13:51;;;;;;;3.20;2.25;;;;;;;4.73;100.00;97874.97;5053458;28;20297;-71
2021/12/04 02:16:19;;;;;;;16.75;14.95;;;;;;;4.43;100.00;97875.00;5055002;28;20539;-71
2021/12/04 02:18:47;;;;;;;3.80;3.38;;;;;;;4.39;100.00;97875.22;5055064;28;20209;-72
2021/12/04 02:21:16;;;;;;;2.92;2.67;;;;;;;4.39;100.00;97869.88;5054818;28;20216;-71
2021/12/04 02:23:42;;;;;;;3.75;2.00;;;;;;;4.52;100.00;97870.00;5054416;28;20208;-72
2021/12/04 02:26:09;;;;;;;2.28;2.00;;;;;;;4.49;100.00;97862.16;5054558;28;20234;-73
2021/12/04 02:28:36;;;;;;;2.20;2.00;;;;;;;4.42;100.00;97865.31;5054777;28;20560;-72
2021/12/04 02:31:03;;;;;;;2.33;2.13;;;;;;;4.53;100.00;97852.19;5054246;28;20189;-72
2021/12/04 02:33:30;;;;;;;2.47;2.28;;;;;;;4.59;100.00;97849.16;5054572;28;20197;-71
2021/12/04 02:35:57;;;;;;;3.05;2.20;;;;;;;4.54;100.00;97840.56;5054187;28;20202;-72
2021/12/04 02:38:26;;;;;;;3.30;2.90;;;;;;;4.72;100.00;97847.41;5054359;28;20206;-71
2021/12/04 02:40:55;;;;;;;2.75;2.55;;;;;;;4.66;100.00;97834.50;5054329;28;20233;-71
2021/12/04 02:43:22;;;;;;;1.88;1.67;;;;;;;4.70;100.00;97836.00;5054659;28;20213;-72
2021/12/04 02:45:49;;;;;;;3.25;2.10;;;;;;;4.78;100.00;97830.19;5054364;28;20555;-71
2021/12/04 02:48:18;;;;;;;3.03;2.03;;;;;;;4.80;100.00;97826.47;5054401;28;20693;-71
2021/12/04 02:50:45;;;;;;;2.70;2.40;;;;;;;4.61;100.00;97825.91;5053805;28;20197;-71
2021/12/04 02:53:11;;;;;;;2.42;2.20;;;;;;;4.54;100.00;97808.59;5054340;28;20190;-73
2021/12/04 02:55:40;;;;;;;3.70;2.60;;;;;;;4.45;100.00;97812.66;5054212;28;20202;-73
2021/12/04 02:58:06;;;;;;;2.08;1.92;;;;;;;4.52;100.00;97813.16;5054151;28;20632;-73
2021/12/04 03:00:33;;;;;;;2.58;2.30;;;;;;;4.60;100.00;97802.88;5053520;28;20285;-73
2021/12/04 03:03:02;;;;;;;1.80;1.70;;;;;;;4.50;100.00;97786.63;5053811;28;20206;-73
2021/12/04 03:05:29;;;;;;;3.85;2.20;;;;;;;4.42;100.00;97796.03;5053809;28;20190;-73
2021/12/04 03:07:58;;;;;;;2.47;2.28;;;;;;;4.31;100.00;97789.53;5053930;28;20183;-73
2021/12/04 03:10:26;;;;;;;2.15;2.00;;;;;;;4.48;100.00;97785.84;5052537;28;20193;-74
2021/12/04 03:12:54;;;;;;;4.10;2.58;;;;;;;4.61;100.00;97777.91;5053619;28;20197;-71
2021/12/04 03:15:22;;;;;;;2.60;2.30;;;;;;;4.60;100.00;97776.22;5053737;28;20632;-72
2021/12/04 03:17:49;;;;;;;2.72;2.30;;;;;;;4.66;100.00;97765.19;5053705;28;20618;-70
2021/12/04 03:20:16;;;;;;;3.67;2.25;;;;;;;4.72;100.00;97762.09;5053293;28;20714;-72
2021/12/04 03:22:44;;;;;;;2.05;1.85;;;;;;;4.78;100.00;97767.06;5033573;28;20190;-72
2021/12/04 03:25:12;;;;;;;2.70;2.47;;;;;;;4.84;100.00;97754.28;5047732;28;20552;-72
2021/12/04 03:27:40;;;;;;;3.47;2.53;;;;;;;5.06;100.00;97759.09;5053604;28;20201;-72
2021/12/04 03:30:24;;;;;;;285.25;140.25;;;;;;;5.52;100.00;97762.25;5053417;28;20217;-72
2021/12/04 03:41:11;;;;;;;21.85;13.25;;;;;;;5.50;100.00;97737.47;5059413;28;20191;-71
2021/12/04 03:43:37;;;;;;;20.17;11.23;;;;;;;5.54;100.00;97720.31;5073463;28;20291;-72
2021/12/04 03:46:09;;;;;;;18.33;9.80;;;;;;;5.57;100.00;97717.41;5073449;28;20194;-72
2021/12/04 03:48:51;;;;;;;14.18;8.77;;;;;;;5.47;100.00;97716.31;5073631;28;20300;-70
2021/12/04 03:51:19;;;;;;;6.53;4.55;;;;;;;5.29;100.00;97726.44;5063358;28;20202;-74
2021/12/04 03:53:46;;;;;;;18.20;10.68;;;;;;;5.48;100.00;97712.69;5053171;28;20202;-73
2021/12/04 03:56:15;;;;;;;18.65;10.85;;;;;;;5.54;100.00;97706.97;5053243;28;20674;-73
2021/12/04 03:58:41;;;;;;;8.60;4.97;;;;;;;5.45;100.00;97704.91;5052637;28;20296;-71
2021/12/04 04:01:10;;;;;;;19.08;12.32;;;;;;;5.65;100.00;97703.53;5052800;28;20277;-72
2021/12/04 04:03:36;;;;;;;16.02;9.43;;;;;;;5.90;100.00;97699.19;5052182;28;20197;-72
2021/12/04 04:06:03;;;;;;;28.10;17.58;;;;;;;5.85;100.00;97684.31;5053040;28;20526;-71
2021/12/04 04:08:30;;;;;;;33.42;21.15;;;;;;;5.98;100.00;97686.19;5052230;28;20232;-71
2021/12/04 04:10:56;;;;;;;17.65;11.73;;;;;;;6.00;100.00;97689.63;5052938;28;20190;-71
2021/12/04 04:13:23;;;;;;;6.65;4.45;;;;;;;5.83;100.00;97674.72;5053011;28;20244;-72
2021/12/04 04:15:50;;;;;;;7.85;6.05;;;;;;;5.80;100.00;97678.47;5052570;28;20495;-73
2021/12/04 04:18:18;;;;;;;2.95;2.65;;;;;;;5.63;100.00;97670.75;5052318;28;20187;-72
2021/12/04 04:20:45;;;;;;;3.67;2.70;;;;;;;5.61;100.00;97672.69;5052215;28;20193;-73
2021/12/04 04:23:12;;;;;;;19.30;11.15;;;;;;;5.78;100.00;97675.03;5052717;28;20186;-71
2021/12/04 04:25:39;;;;;;;6.40;4.32;;;;;;;5.89;100.00;97668.94;5052274;28;20229;-71
2021/12/04 04:28:05;;;;;;;12.48;7.53;;;;;;;5.90;100.00;97664.47;5052508;28;20196;-72
2021/12/04 04:30:32;;;;;;;16.70;9.80;;;;;;;6.12;100.00;97664.69;5052476;28;20217;-72
2021/12/04 04:33:00;;;;;;;9.70;6.38;;;;;;;6.11;100.00;97660.31;5052302;28;20209;-72
2021/12/04 04:35:30;;;;;;;3.35;2.72;;;;;;;5.88;100.00;97647.69;5052591;28;20270;-72
2021/12/04 04:38:03;;;;;;;9.68;6.18;;;;;;;5.92;100.00;97658.03;5052321;28;20272;-72
2021/12/04 04:59:48;;;;;;;2.95;2.40;;;;;;;6.34;100.00;97629.28;5032213;28;20234;-70
2021/12/04 05:02:27;;;;;;;2.35;2.15;;;;;;;6.07;100.00;97631.28;5033782;28;20192;-72
2021/12/04 05:10:50;;;;;;;2.35;2.15;;;;;;;5.53;100.00;97621.63;5051915;28;20357;-72
2021/12/04 05:13:18;;;;;;;2.42;2.22;;;;;;;5.58;100.00;97614.16;5052387;28;20632;-72
2021/12/04 05:15:56;;;;;;;1.95;1.80;;;;;;;5.44;100.00;97621.28;5052238;28;20205;-72
2021/12/04 05:18:32;;;;;;;2.10;1.90;;;;;;;5.48;100.00;97600.59;5052067;28;20203;-72
2021/12/04 05:21:05;;;;;;;2.20;1.98;;;;;;;5.47;100.00;97601.53;5052332;28;20269;-72
2021/12/04 05:23:34;;;;;;;3.25;2.20;;;;;;;5.31;100.00;97601.75;5051865;28;20194;-72
2021/12/04 05:26:01;;;;;;;2.30;2.00;;;;;;;5.39;100.00;97604.75;5051243;28;20321;-72
2021/12/04 05:28:28;;;;;;;2.35;2.15;;;;;;;5.36;100.00;97593.41;5051750;28;20206;-73
2021/12/04 05:30:55;;;;;;;2.78;2.25;;;;;;;5.37;100.00;97584.47;5052405;28;20600;-73
2021/12/04 05:33:22;;;;;;;2.30;2.10;;;;;;;5.46;100.00;97591.84;5052414;28;20196;-73
2021/12/04 05:35:48;;;;;;;2.85;2.10;;;;;;;5.51;100.00;97583.50;5055907;28;20188;-73
2021/12/04 05:38:16;;;;;;;2.90;2.30;;;;;;;5.58;100.00;97582.13;5055723;28;20202;-72
2021/12/04 05:40:44;;;;;;;3.38;2.70;;;;;;;5.55;100.00;97572.50;5055610;28;20190;-73
2021/12/04 05:43:11;;;;;;;3.17;2.38;;;;;;;5.77;100.00;97571.03;5055272;28;20228;-72
2021/12/04 05:45:42;;;;;;;4.30;2.30;;;;;;;5.74;100.00;97576.56;5055318;28;20546;-72
2021/12/04 05:48:12;;;;;;;3.95;2.35;;;;;;;5.72;100.00;97574.00;5054778;28;20186;-72
2021/12/04 05:50:59;;;;;;;9.30;6.05;;;;;;;5.80;100.00;97568.97;5055180;28;20225;-72
2021/12/04 05:53:28;;;;;;;6.95;5.00;;;;;;;5.81;100.00;97567.13;5055282;28;20636;-71
2021/12/04 05:55:56;;;;;;;5.60;4.10;;;;;;;5.91;100.00;97567.38;5055024;28;20229;-70
2021/12/04 05:58:24;;;;;;;10.25;6.75;;;;;;;6.00;100.00;97564.06;5055263;28;20264;-71
2021/12/04 06:00:52;;;;;;;6.13;4.75;;;;;;;5.89;100.00;97562.13;5055188;28;20202;-73
2021/12/04 06:03:21;;;;;;;3.83;3.33;;;;;;;5.80;100.00;97560.09;5054913;28;20562;-71
2021/12/04 06:05:47;;;;;;;9.02;6.20;;;;;;;5.95;100.00;97560.88;5054802;28;20190;-73
2021/12/04 06:08:14;;;;;;;6.03;4.10;;;;;;;5.93;100.00;97560.94;5054941;28;20188;-73
2021/12/04 06:10:41;;;;;;;5.10;4.47;;;;;;;5.84;100.00;97561.59;5054758;28;20227;-72
2021/12/04 06:13:10;;;;;;;3.65;3.03;;;;;;;5.91;100.00;97565.53;5054344;28;20191;-70
2021/12/04 06:15:36;;;;;;;4.32;3.55;;;;;;;5.81;100.00;97567.13;5055039;28;20539;-70
2021/12/04 06:18:04;;;;;;;7.70;5.05;;;;;;;6.07;100.00;97575.16;5054682;28;20211;-71
2021/12/04 06:23:15;;;;;;;2.80;2.45;;;;;;;6.13;100.00;97559.53;5054488;28;20268;-71
2021/12/04 06:25:42;;;;;;;3.85;2.95;;;;;;;5.95;100.00;97552.88;5054496;28;20701;-72
2021/12/04 06:28:10;;;;;;;3.70;3.00;;;;;;;5.76;100.00;97548.78;5054654;28;20186;-73
2021/12/04 06:30:39;;;;;;;2.85;2.60;;;;;;;5.75;100.00;97551.59;5054292;28;20296;-72
2021/12/04 06:33:08;;;;;;;3.30;3.00;;;;;;;5.90;100.00;97550.50;5054556;28;20238;-73
2021/12/04 06:35:36;;;;;;;3.65;3.35;;;;;;;5.93;100.00;97544.06;5054866;28;20202;-72
2021/12/04 06:38:04;;;;;;;2.97;2.72;;;;;;;6.00;100.00;97546.22;5054614;28;20673;-72
2021/12/04 06:40:30;;;;;;;2.70;2.40;;;;;;;6.07;100.00;97548.44;5054553;28;20208;-71
2021/12/04 06:42:59;;;;;;;4.20;3.50;;;;;;;6.05;100.00;97548.53;5060867;28;20190;-72
2021/12/04 06:45:30;;;;;;;4.10;3.42;;;;;;;6.07;100.00;97541.28;5074514;28;20243;-71
2021/12/04 06:47:59;;;;;;;4.07;3.63;;;;;;;6.04;100.00;97550.38;5060870;28;20192;-71
2021/12/04 06:50:34;;;;;;;4.20;3.17;;;;;;;6.05;100.00;97551.22;5052282;28;20210;-70
2021/12/04 06:53:07;;;;;;;3.83;3.20;;;;;;;6.10;100.00;97559.75;5053236;28;20545;-72
2021/12/04 06:55:38;;;;;;;3.92;2.92;;;;;;;5.94;100.00;97553.78;5052804;28;20277;-72
2021/12/04 06:58:05;;;;;;;4.32;3.92;;;;;;;6.09;100.00;97554.53;5052290;28;20281;-71
2021/12/04 07:00:35;;;;;;;4.40;4.00;;;;;;;6.04;100.00;97546.84;5053785;28;20273;-70
2021/12/04 07:03:03;;;;;;;3.78;3.47;;;;;;;6.09;100.00;97554.53;5054349;28;20218;-72
2021/12/04 07:05:29;;;;;;;3.75;3.00;;;;;;;6.11;100.00;97547.25;5053578;28;20237;-73
2021/12/04 07:07:56;;;;;;;2.83;2.63;;;;;;;6.12;100.00;97540.94;5052836;28;20201;-72
2021/12/04 07:10:22;;;;;;;4.35;3.20;;;;;;;6.11;100.00;97542.78;5053623;28;20669;-73
2021/12/04 07:12:49;;;;;;;3.85;3.40;;;;;;;6.15;100.00;97543.38;5053335;28;20206;-72
2021/12/04 07:15:16;;;;;;;4.47;3.80;;;;;;;6.17;100.00;97547.69;5052810;28;20238;-73
2021/12/04 07:17:44;;;;;;;4.15;3.70;;;;;;;6.17;100.00;97546.81;5053000;28;20226;-73
2021/12/04 07:20:11;;;;;;;6.20;3.60;;;;;;;6.34;100.00;97546.44;5056948;28;20281;-73
2021/12/04 07:22:38;;;;;;;3.47;3.15;;;;;;;6.42;100.00;97540.50;5053961;28;20190;-73
2021/12/04 07:25:05;;;;;;;3.75;2.95;;;;;;;6.67;100.00;97536.84;5053482;28;20194;-74
2021/12/04 07:27:32;;;;;;;5.45;3.72;;;;;;;6.70;100.00;97539.31;5053915;28;20281;-73
2021/12/04 07:30:00;;;;;;;3.13;2.83;;;;;;;6.62;100.00;97536.34;5053787;28;20213;-74
2021/12/04 07:32:27;;;;;;;4.53;2.70;;;;;;;6.65;100.00;97526.28;5053461;28;20278;-72
2021/12/04 07:34:55;;;;;;;3.30;3.10;;;;;;;6.78;100.00;97525.34;5053780;28;20202;-73
2021/12/04 07:37:22;;;;;;;4.60;4.20;;;;;;;6.70;100.00;97533.13;5053350;28;20203;-74
2021/12/04 07:39:48;;;;;;;3.00;2.78;;;;;;;6.78;100.00;97533.38;5053702;28;20285;-74
2021/12/04 07:42:15;;;;;;;4.38;2.88;;;;;;;6.70;100.00;97533.97;5053652;28;20204;-73
2021/12/04 07:44:42;;;;;;;5.75;2.90;;;;;;;6.73;100.00;97528.38;5053932;28;20670;-74
2021/12/04 07:47:11;;;;;;;4.80;2.80;;;;;;;6.81;100.00;97531.34;5054021;28;20282;-75
2021/12/04 07:49:38;;;;;;;10.00;3.60;;;;;;;6.80;100.00;97529.63;5053396;28;20209;-74
2021/12/04 07:52:08;;;;;;;7.70;3.35;;;;;;;6.87;100.00;97528.19;5052335;28;20729;-74
2021/12/04 07:54:35;;;;;;;4.30;3.25;;;;;;;6.70;100.00;97527.78;5053204;28;20207;-74
2021/12/04 07:57:02;;;;;;;6.50;4.57;;;;;;;6.76;100.00;97528.16;5052671;28;20631;-72
2021/12/04 07:59:29;;;;;;;4.85;4.35;;;;;;;6.89;100.00;97528.06;5053258;28;20728;-73
2021/12/04 08:01:56;;;;;;;8.80;3.72;;;;;;;6.78;100.00;97528.03;5053093;28;20618;-72
2021/12/04 08:04:23;;;;;;;3.90;3.25;;;;;;;6.90;100.00;97524.44;5052934;28;20189;-72
2021/12/04 08:06:50;;;;;;;4.28;3.08;;;;;;;6.89;100.00;97528.06;5052132;28;20231;-74
2021/12/04 08:09:18;;;;;;;3.33;2.80;;;;;;;6.90;100.00;97529.78;5052610;28;20226;-72
2021/12/04 08:11:46;;;;;;;4.55;4.15;;;;;;;7.07;100.00;97523.13;5052743;28;20214;-74
2021/12/04 08:14:13;;;;;;;4.25;3.10;;;;;;;7.14;100.00;97521.69;5053067;28;20206;-73
2021/12/04 08:16:39;;;;;;;4.57;2.90;;;;;;;7.05;100.00;97517.88;5052843;28;20193;-74
2021/12/04 08:19:06;;;;;;;7.88;3.20;;;;;;;7.21;100.00;97528.28;5052975;28;20696;-72
2021/12/04 08:21:34;;;;;;;7.70;3.72;;;;;;;7.23;100.00;97514.78;5052390;28;20206;-72
2021/12/04 08:24:01;;;;;;;5.38;2.97;;;;;;;7.26;100.00;97519.91;5053014;28;20191;-75
2021/12/04 08:26:29;;;;;;;5.38;3.50;;;;;;;7.27;100.00;97519.75;5052354;28;20239;-72
2021/12/04 08:28:57;;;;;;;3.75;3.45;;;;;;;7.21;100.00;97516.72;5052768;28;20202;-75
2021/12/04 08:31:23;;;;;;;3.97;3.40;;;;;;;7.06;100.00;97516.09;5052413;28;20210;-73
2021/12/04 08:33:50;;;;;;;5.82;3.58;;;;;;;6.94;100.00;97517.00;5052680;28;20206;-74
2021/12/04 08:36:17;;;;;;;3.80;3.10;;;;;;;7.12;100.00;97510.25;5052353;28;20182;-74
2021/12/04 08:38:47;;;;;;;3.10;2.80;;;;;;;7.13;100.00;97503.94;5052707;28;20198;-73
2021/12/04 08:41:14;;;;;;;4.38;3.40;;;;;;;7.00;100.00;97505.84;5052716;28;20269;-73
2021/12/04 08:43:42;;;;;;;3.47;2.90;;;;;;;7.20;100.00;97507.84;5052694;28;20208;-72
2021/12/04 08:46:09;;;;;;;3.85;3.53;;;;;;;7.28;100.00;97508.09;5052264;28;20193;-73
2021/12/04 08:48:36;;;;;;;3.65;3.35;;;;;;;7.12;100.00;97496.84;5052163;28;20253;-72
2021/12/04 08:51:04;;;;;;;4.22;3.83;;;;;;;7.23;100.00;97494.19;5052458;28;20654;-72
2021/12/04 08:53:30;;;;;;;4.90;3.97;;;;;;;7.05;100.00;97498.31;5052277;28;20192;-73
2021/12/04 08:55:57;;;;;;;4.90;3.40;;;;;;;7.00;100.00;97503.16;5052693;28;20589;-71
2021/12/04 08:58:24;;;;;;;6.20;3.95;;;;;;;7.07;100.00;97501.72;5052202;28;20226;-73
2021/12/04 09:00:56;;;;;;;6.22;3.90;;;;;;;7.00;100.00;97497.81;5052041;28;20196;-71
2021/12/04 09:03:26;;;;;;;4.72;3.70;;;;;;;7.10;100.00;97493.47;5052007;28;20561;-73
2021/12/04 09:05:54;;;;;;;6.38;4.80;;;;;;;6.98;100.00;97499.75;5052389;28;20230;-73
2021/12/04 09:08:23;;;;;;;5.05;4.43;;;;;;;7.01;100.00;97491.47;5052807;28;20192;-72
2021/12/04 09:10:51;;;;;;;6.03;4.63;;;;;;;6.90;100.00;97489.66;5056008;28;20238;-73
2021/12/04 09:13:18;;;;;;;5.00;4.43;;;;;;;7.11;100.00;97492.50;5055736;28;20204;-72
2021/12/04 09:15:46;;;;;;;5.80;4.45;;;;;;;7.13;100.00;97485.19;5055723;28;20197;-73
2021/12/04 09:18:14;;;;;;;5.60;3.80;;;;;;;7.26;100.00;97483.28;5055552;28;20195;-72
2021/12/04 09:20:41;;;;;;;4.93;4.43;;;;;;;7.36;100.00;97479.88;5055309;28;20206;-73
2021/12/04 09:23:14;;;;;;;5.57;4.78;;;;;;;7.20;100.00;97483.75;5055643;28;20188;-72
2021/12/04 09:25:44;;;;;;;7.20;5.95;;;;;;;7.10;100.00;97482.78;5055661;28;20666;-72
2021/12/04 09:28:19;;;;;;;6.15;5.28;;;;;;;7.13;100.00;97482.53;5056276;28;20569;-74
2021/12/04 10:01:09;;;;;;;7.28;5.70;;;;;;;8.26;100.00;97451.13;5054809;28;20185;-73
2021/12/04 10:04:16;;;;;;;8.02;5.75;;;;;;;8.53;100.00;97439.13;5055101;28;20634;-74
2021/12/04 10:18:50;;;;;;;4.55;4.15;;;;;;;9.05;100.00;97441.88;5054842;28;20186;-73
2021/12/04 10:24:26;;;;;;;1.60;1.30;;;;;;;9.08;100.00;97429.03;5033533;28;20285;-73
2021/12/04 10:32:27;;;;;;;2.47;2.00;;;;;;;9.35;100.00;97406.97;5054084;28;20193;-73
2021/12/04 10:34:57;;;;;;;2.72;1.83;;;;;;;9.40;100.00;97403.88;5053306;28;20281;-74
2021/12/04 10:37:30;;;;;;;1.85;1.50;;;;;;;9.47;100.00;97396.97;5054451;28;20276;-73
2021/12/04 10:40:00;;;;;;;2.78;1.80;;;;;;;9.53;100.00;97392.91;5054589;28;20213;-74
2021/12/04 10:42:32;;;;;;;1.60;1.35;;;;;;;9.46;100.00;97389.06;5054601;28;20209;-73
2021/12/04 10:45:00;;;;;;;1.80;1.02;;;;;;;9.57;100.00;97384.44;5054399;28;20186;-74
2021/12/04 10:47:28;;;;;;;1.35;1.05;;;;;;;9.66;100.00;97376.56;5054130;28;20613;-75
2021/12/04 10:50:08;;;;;;;1.45;1.05;;;;;;;9.66;100.00;97376.56;5054286;28;20213;-75
2021/12/04 10:52:47;;;;;;;4.70;1.88;;;;;;;9.61;100.00;97368.91;5054252;28;20205;-74
2021/12/04 10:55:21;;;;;;;1.88;1.55;;;;;;;9.74;100.00;97368.63;5054295;28;20194;-72
2021/12/04 11:00:41;;;;;;;1.75;1.42;;;;;;;9.77;100.00;97346.88;5053715;28;20296;-75
2021/12/04 11:03:20;;;;;;;1.95;1.40;;;;;;;9.84;100.00;97344.50;5053777;28;20185;-75
2021/12/04 11:22:44;;;;;;;2.83;2.35;;;;;;;10.31;100.00;97291.75;5029015;28;20202;-74
2021/12/04 11:25:32;;;;;;;2.88;2.00;;;;;;;10.29;100.00;97292.84;5053220;28;20594;-74
2021/12/04 11:28:23;;;;;;;1.88;1.58;;;;;;;10.37;100.00;97282.22;5053102;28;20187;-74
2021/12/04 11:36:28;;;;;;;3.10;1.70;;;;;;;10.54;100.00;97270.72;5052789;28;20201;-75
2021/12/04 11:39:07;;;;;;;2.20;1.75;;;;;;;10.45;100.00;97268.91;5053285;28;20539;-74
2021/12/04 11:41:37;;;;;;;2.63;2.17;;;;;;;10.58;100.00;97265.88;5052771;28;20616;-74
2021/12/04 11:44:10;;;;;;;3.60;3.00;;;;;;;10.53;100.00;97268.19;5052414;28;20210;-75
2021/12/04 11:46:43;;;;;;;2.60;2.10;;;;;;;10.46;100.00;97253.63;5052580;28;20186;-73
2021/12/04 11:49:16;;;;;;;4.05;3.45;;;;;;;10.53;100.00;97254.72;5052847;28;20255;-73
2021/12/04 11:51:56;;;;;;;3.05;1.60;;;;;;;10.32;100.00;97250.38;5052898;28;20636;-73
2021/12/04 11:54:24;;;;;;;1.75;1.40;;;;;;;10.07;100.00;97246.44;5052699;28;20189;-74
2021/12/04 11:57:02;;;;;;;3.58;2.38;;;;;;;10.02;100.00;97241.50;5052843;28;20233;-74
2021/12/04 11:59:32;;;;;;;3.80;2.65;;;;;;;10.00;100.00;97234.56;5052361;28;20199;-74
2021/12/04 12:02:00;;;;;;;1.77;1.50;;;;;;;10.01;100.00;97230.88;5052197;28;20265;-75
2021/12/04 12:04:36;;;;;;;2.42;2.08;;;;;;;9.98;100.00;97225.78;5051406;28;20715;-73
2021/12/04 12:07:15;;;;;;;1.48;1.30;;;;;;;9.93;100.00;97233.44;5052398;28;20190;-74
2021/12/04 12:09:42;;;;;;;2.30;1.40;;;;;;;9.75;100.00;97246.75;5052006;28;20205;-74
2021/12/04 12:12:12;;;;;;;2.10;1.20;;;;;;;9.67;100.00;97239.38;5052081;28;20293;-75
2021/12/04 12:14:46;;;;;;;3.58;2.30;;;;;;;9.64;100.00;97238.81;5052389;28;20630;-74
2021/12/04 12:17:14;;;;;;;5.40;3.85;;;;;;;9.49;100.00;97235.69;5052494;28;20193;-73
2021/12/04 12:19:49;;;;;;;6.05;4.97;;;;;;;9.49;100.00;97243.75;5052589;28;20182;-74
2021/12/04 12:22:28;;;;;;;3.97;2.80;;;;;;;9.59;100.00;97252.69;5052253;28;20201;-72
2021/12/04 12:25:06;;;;;;;3.97;2.28;;;;;;;9.53;100.00;97263.97;5052140;28;20189;-74
2021/12/04 12:27:50;;;;;;;3.30;2.22;;;;;;;9.45;100.00;97264.69;5050678;28;20236;-73
2021/12/04 12:33:27;;;;;;;8.63;5.03;;;;;;;9.38;100.00;97236.66;5039895;28;20244;-74
2021/12/04 12:36:05;;;;;;;4.72;3.05;;;;;;;9.42;100.00;97269.47;5048586;28;20273;-73
2021/12/04 12:38:40;;;;;;;4.07;3.67;;;;;;;9.43;100.00;97272.03;5051529;28;20687;-74
2021/12/04 12:41:11;;;;;;;5.00;3.83;;;;;;;9.45;100.00;97280.81;5047980;28;20652;-73
2021/12/04 12:43:42;;;;;;;3.30;3.00;;;;;;;9.42;100.00;97282.91;5054673;28;20185;-73
2021/12/04 12:46:10;;;;;;;4.13;2.75;;;;;;;9.31;100.00;97295.44;5047302;28;20279;-74
2021/12/04 12:48:47;;;;;;;2.50;2.30;;;;;;;9.06;100.00;97290.56;5055797;28;20200;-74
2021/12/04 12:51:15;;;;;;;2.72;2.50;;;;;;;8.93;100.00;97293.47;5055867;28;20224;-74
2021/12/04 12:53:44;;;;;;;2.75;2.55;;;;;;;8.95;100.00;97281.66;5052760;28;20537;-74
2021/12/04 12:56:13;;;;;;;3.35;2.20;;;;;;;8.99;100.00;97266.09;5044025;28;20197;-74
2021/12/04 12:58:44;;;;;;;2.15;1.95;;;;;;;8.84;100.00;97273.69;5046930;28;20206;-74
2021/12/04 13:12:42;;;;;;;2.05;1.85;;;;;;;9.28;100.00;97228.59;5036743;28;20312;-74
2021/12/04 13:15:10;;;;;;;2.80;1.70;;;;;;;9.42;100.00;97250.66;5053740;28;20294;-74
2021/12/04 13:17:41;;;;;;;3.60;1.70;;;;;;;9.36;100.00;97269.06;5055134;28;20208;-74
2021/12/04 13:20:09;;;;;;;2.28;1.70;;;;;;;9.34;100.00;97264.81;5055307;28;20186;-74
2021/12/04 13:22:36;;;;;;;1.55;1.33;;;;;;;9.31;100.00;97252.47;5055477;28;20194;-74
2021/12/04 13:25:07;;;;;;;2.28;1.70;;;;;;;9.32;100.00;97266.78;5055082;28;20206;-74
2021/12/04 13:30:03;;;;;;;2.33;2.13;;;;;;;9.49;100.00;97251.81;5054889;28;20193;-74
2021/12/04 13:32:33;;;;;;;1.95;1.58;;;;;;;9.44;100.00;97264.81;5055466;28;20248;-73
2021/12/04 13:35:08;;;;;;;5.07;3.45;;;;;;;9.47;100.00;97275.28;5055743;28;20233;-73
2021/12/04 13:37:35;;;;;;;2.80;1.77;;;;;;;9.36;100.00;97278.91;5055390;28;20269;-73
2021/12/04 13:40:05;;;;;;;2.05;1.85;;;;;;;9.39;100.00;97276.81;5055536;28;20201;-73
2021/12/04 13:42:32;;;;;;;2.25;1.80;;;;;;;9.51;100.00;97274.84;5055192;28;20183;-73
2021/12/04 13:45:00;;;;;;;1.70;1.60;;;;;;;9.60;100.00;97274.00;5055031;28;20198;-73
2021/12/04 13:47:26;;;;;;;1.95;1.60;;;;;;;9.67;100.00;97258.19;5055266;28;20282;-74
2021/12/04 13:50:00;;;;;;;2.70;1.70;;;;;;;9.76;100.00;97265.41;5055322;28;20305;-72
2021/12/04 13:52:31;;;;;;;2.35;1.80;;;;;;;10.03;100.00;97269.22;5055078;28;20233;-72
2021/12/04 13:55:03;;;;;;;1.92;1.73;;;;;;;10.00;100.00;97261.44;5053633;28;20193;-73
2021/12/04 13:57:29;;;;;;;3.47;1.92;;;;;;;10.09;100.00;97265.97;5054778;28;20564;-73
2021/12/04 13:59:58;;;;;;;3.42;2.67;;;;;;;10.30;100.00;97251.53;5055044;28;20182;-73
2021/12/04 14:02:28;;;;;;;3.65;2.60;;;;;;;10.34;100.00;97253.78;5054991;28;20281;-73
2021/12/04 14:04:58;;;;;;;2.55;1.85;;;;;;;10.22;100.00;97247.69;5055007;28;20208;-73